Flight Track Log - Related Links

Times and Time Zones

All times are in EDT time to prevent confusion due to time zone crossing. See the N311JE flight status page for this flight to view local times or setup timezone preferences in your user account.

Time Position Orientation Groundspeed Altitude Reporting Facility
EDT Latitude Longitude Course Direction KTS MPH feet Rate Location/Type
Thu 12:13:02 PM 42.1333 -88.5500 90° East 111 128 2,600  Level Chicago TRACON
Thu 12:14:02 PM 42.1333 -88.5000 90° East 147 169 2,700 200 Climbing Chicago TRACON
Thu 12:15:02 PM 42.1500 -88.4333 71° East 146 168 3,000 150 Climbing Chicago TRACON
Thu 12:16:02 PM 42.1667 -88.3833 66° East 156 180 3,000  Level Chicago TRACON
Thu 12:17:02 PM 42.1667 -88.3333 90° East 160 184 3,000 -50 Level Chicago TRACON
Thu 12:18:02 PM 42.1833 -88.2667 71° East 158 182 2,900 -50 Descending Chicago TRACON
Thu 12:19:02 PM 42.2000 -88.2167 66° East 160 184 2,900 50 Level Chicago TRACON
Thu 12:20:02 PM 42.2167 -88.1667 66° East 156 180 3,000 248 Climbing Chicago TRACON
Thu 12:21:03 PM 42.2333 -88.1000 71° East 152 175 3,400 694 Climbing Chicago TRACON
Thu 12:22:03 PM 42.2500 -88.0667 56° Northeast 124 143 4,400 900 Climbing Chicago TRACON
Thu 12:23:03 PM 42.2500 -88.0167 90° East 131 151 5,200 800 Climbing Chicago TRACON
Thu 12:24:03 PM 42.2500 -87.9667 90° East 131 151 6,000 800 Climbing Chicago TRACON
Thu 12:25:03 PM 42.2500 -87.9167 90° East 135 155 6,800 667 Climbing Chicago TRACON
Thu 12:25:33 PM 42.2497 -87.9017 91° East 132 152 7,000 652 Climbing Chicago Center
Thu 12:26:35 PM 42.2500 -87.8375 90° East 140 161 7,800 677 Climbing Chicago Center
Thu 12:27:37 PM 42.2522 -87.7856 87° East 140 161 8,400 532 Climbing Chicago Center
Thu 12:28:39 PM 42.2531 -87.7308 89° East 146 168 8,900 581 Climbing Chicago Center
Thu 12:29:41 PM 42.2461 -87.6800 100° East 139 160 9,600 581 Climbing Chicago Center
Thu 12:30:43 PM 42.2406 -87.6292 98° East 138 159 10,100 532 Climbing Chicago Center
Thu 12:31:45 PM 42.2356 -87.5661 96° East 141 162 10,700 484 Climbing Chicago Center
Thu 12:32:47 PM 42.2308 -87.5156 97° East 137 158 11,100 145 Climbing Chicago Center
Thu 12:33:49 PM 42.2253 -87.4564 97° East 155 178 11,000  Descending Chicago Center
Thu 12:34:51 PM 42.2189 -87.3956 98° East 163 188 11,100 48 Climbing Chicago Center
Thu 12:35:53 PM 42.2131 -87.3322 97° East 168 193 11,100  Level Chicago Center
Thu 12:36:55 PM 42.2072 -87.2703 97° East 168 193 11,100 -48 Level Chicago Center
Thu 12:37:57 PM 42.2003 -87.1969 97° East 167 192 11,000 -48 Descending Chicago Center
Thu 12:38:59 PM 42.1939 -87.1342 98° East 169 194 11,000  Level Chicago Center
Thu 12:40:01 PM 42.1881 -87.0728 97° East 167 192 11,000 48 Level Chicago Center
Thu 12:41:03 PM 42.1811 -87.0094 98° East 169 194 11,100 48 Climbing Chicago Center
Thu 12:42:05 PM 42.1750 -86.9481 98° East 167 192 11,100  Level Chicago Center
Thu 12:43:07 PM 42.1694 -86.8864 97° East 167 192 11,100  Level Chicago Center
Thu 12:44:09 PM 42.1625 -86.8133 97° East 165 190 11,100  Level Chicago Center
Thu 12:45:11 PM 42.1561 -86.7531 98° East 164 189 11,100  Level Chicago Center
Thu 12:46:13 PM 42.1506 -86.6903 97° East 162 186 11,100  Level Chicago Center
Thu 12:47:15 PM 42.1436 -86.6283 99° East 161 185 11,100  Level Chicago Center
Thu 12:48:17 PM 42.1375 -86.5681 98° East 161 185 11,100  Level Chicago Center
Thu 12:49:18 PM 42.1317 -86.5086 98° East 161 185 11,100  Level Chicago Center
Thu 12:50:20 PM 42.1247 -86.4486 99° East 163 188 11,100  Level Chicago Center
Thu 12:51:22 PM 42.1189 -86.3897 98° East 160 184 11,100  Level Chicago Center
Thu 12:52:24 PM 42.1125 -86.3278 98° East 165 190 11,100  Level Chicago Center
Thu 12:53:26 PM 42.1033 -86.2542 100° East 167 192 11,100  Level Chicago Center
Thu 12:54:28 PM 42.0942 -86.1931 101° East 167 192 11,100  Level Chicago Center
Thu 12:55:30 PM 42.0867 -86.1344 100° East 161 185 11,100  Level Chicago Center
Thu 12:56:32 PM 42.0822 -86.0714 95° East 168 193 11,100  Level Chicago Center
Thu 12:57:33 PM 42.0747 -86.0108 99° East 166 191 11,100  Level Chicago Center
Thu 12:58:35 PM 42.0675 -85.9433 98° East 164 189 11,100  Level Chicago Center
Thu 12:59:39 PM 42.0614 -85.8828 98° East 164 189 11,100  Level Chicago Center
Thu 01:00:41 PM 42.0561 -85.8217 97° East 165 190 11,100  Level Chicago Center
Thu 01:01:43 PM 42.0475 -85.7606 101° East 167 192 11,100  Level Chicago Center
Thu 01:02:44 PM 42.0414 -85.7014 98° East 162 186 11,100  Level Chicago Center
Thu 01:03:46 PM 42.0331 -85.6272 99° East 167 192 11,100  Level Chicago Center
Thu 01:04:48 PM 42.0264 -85.5686 99° East 162 186 11,100  Level Chicago Center
Thu 01:05:50 PM 42.0189 -85.5067 99° East 166 191 11,100  Level Chicago Center
Thu 01:06:52 PM 42.0133 -85.4483 97° East 161 185 11,100  Level Chicago Center
Thu 01:07:54 PM 42.0064 -85.3869 99° East 165 190 11,100  Level Chicago Center
Thu 01:08:55 PM 41.9992 -85.3267 99° East 165 190 11,100  Level Chicago Center
Thu 01:09:57 PM 41.9911 -85.2592 99° East 164 189 11,100  Level Chicago Center
Thu 01:10:59 PM 41.9850 -85.1989 98° East 163 188 11,100  Level Chicago Center
Thu 01:12:01 PM 41.9775 -85.1378 99° East 164 189 11,100  Level Chicago Center
Thu 01:13:03 PM 41.9700 -85.0783 100° East 163 188 11,100  Level Chicago Center
Thu 01:14:05 PM 41.9622 -85.0044 98° East 165 190 11,100  Level Chicago Center
Thu 01:15:07 PM 41.9550 -84.9442 99° East 164 189 11,100  Level Chicago Center
Thu 01:16:09 PM 41.9464 -84.8831 101° East 165 190 11,100  Level Chicago Center
Thu 01:17:10 PM 41.9403 -84.8208 98° East 167 192 11,100  Level Chicago Center
Thu 01:18:12 PM 41.9331 -84.7592 99° East 167 192 11,100  Level Chicago Center
Thu 01:19:14 PM 41.9250 -84.6983 100° East 166 191 11,100  Level Chicago Center
Thu 01:20:16 PM 41.9189 -84.6375 98° East 165 190 11,100  Level Chicago Center
Thu 01:21:18 PM 41.9092 -84.5639 100° East 166 191 11,100  Level Chicago Center
Thu 01:22:20 PM 41.9011 -84.5033 100° East 166 191 11,100 -49 Level Chicago Center
Thu 01:23:21 PM 41.8942 -84.4419 99° East 166 191 11,000  Descending Chicago Center
Thu 01:24:31 PM 41.8847 -84.3711 100° East 162 186 11,100 46 Climbing Cleveland Center
Thu 01:25:31 PM 41.8786 -84.3092 98° East 162 186 11,100  Level Cleveland Center
Thu 01:26:15 PM 41.8717 -84.2669 102° East 161 185 11,100 -61 Level Cleveland Center
Thu 01:27:10 PM 41.8628 -84.2136 103° East 163 188 11,000  Descending Cleveland Center
Thu 01:28:17 PM 41.8547 -84.1433 99° East 166 191 11,100 47 Climbing Cleveland Center
Thu 01:29:17 PM 41.8481 -84.0817 98° East 167 192 11,100  Level Cleveland Center
Thu 01:30:00 PM 41.8433 -84.0394 99° East 167 192 11,100  Level Cleveland Center
Thu 01:30:31 PM 41.8397 -84.0144 101° East 167 192 11,100  Level Cleveland Center
Thu 01:31:01 PM 41.8367 -83.9781 96° East 169 194 11,100  Level Cleveland Center
Thu 01:31:31 PM 41.8314 -83.9497 104° East 167 192 11,100  Level Cleveland Center
Thu 01:32:08 PM 41.8283 -83.9078 96° East 169 194 11,100  Level Cleveland Center
Thu 01:33:08 PM 41.8175 -83.8458 103° East 172 198 11,100  Level Cleveland Center
Thu 01:34:31 PM 41.8075 -83.7619 99° East 181 208 11,100  Level Cleveland Center
Thu 01:35:31 PM 41.7986 -83.7028 101° East 181 208 11,100  Level Cleveland Center
Thu 01:36:31 PM 41.7900 -83.6411 101° East 169 194 11,100 -50 Level Cleveland Center
Thu 01:37:31 PM 41.7831 -83.5822 99° East 163 188 11,000  Descending Cleveland Center
Thu 01:38:31 PM 41.7764 -83.5208 98° East 163 188 11,100  Climbing Cleveland Center
Thu 01:39:31 PM 41.7653 -83.4617 104° East 163 188 11,000  Descending Cleveland Center
Thu 01:40:31 PM 41.7586 -83.4031 99° East 163 188 11,100  Climbing Cleveland Center
Thu 01:41:31 PM 41.7517 -83.3414 99° East 163 188 11,000 -350 Descending Cleveland Center
Thu 01:42:31 PM 41.7406 -83.2769 103° East 163 188 10,400 -550 Descending Cleveland Center
Thu 01:43:31 PM 41.7317 -83.2125 100° East 168 193 9,900 -600 Descending Cleveland Center
Thu 01:44:31 PM 41.7231 -83.1344 98° East 181 208 9,200 -450 Descending Cleveland Center
Thu 01:45:31 PM 41.7119 -83.0672 102° East 181 208 9,000 -150 Descending Cleveland Center
Thu 01:46:31 PM 41.7050 -83.0058 99° East 176 203 8,900 -50 Descending Cleveland Center
Thu 01:47:31 PM 41.6978 -82.9469 99° East 171 197 8,900  Level Cleveland Center
Thu 01:48:31 PM 41.6886 -82.8856 101° East 166 191 8,900  Level Cleveland Center
Thu 01:49:31 PM 41.6817 -82.8242 99° East 166 191 8,900  Level Cleveland Center
Thu 01:50:32 PM 41.6703 -82.7681 105° East 165 190 8,900  Level Cleveland Center
Thu 01:51:31 PM 41.6650 -82.7067 97° East 161 185 8,900 -50 Level Cleveland Center
Thu 01:52:31 PM 41.6558 -82.6453 101° East 161 185 8,800 -400 Descending Cleveland Center
Thu 01:53:31 PM 41.6444 -82.5756 102° East 172 198 8,100 -550 Descending Cleveland Center
Thu 01:54:31 PM 41.6372 -82.5169 99° East 177 204 7,700 -500 Descending Cleveland Center
Thu 01:55:31 PM 41.6278 -82.4500 101° East 182 209 7,100 -650 Descending Cleveland Center
Thu 01:56:31 PM 41.6164 -82.3803 102° East 182 209 6,400 -650 Descending Cleveland Center
Thu 01:57:31 PM 41.6072 -82.3133 100° East 182 209 5,800 -611 Descending Cleveland Center
Thu 01:58:19 PM 41.5997 -82.2575 100° East 182 209 5,300 -765 Descending Cleveland Center
Thu 01:59:13 PM 41.5900 -82.1961 102° East 176 203 4,500 -730 Descending Cleveland Center
Thu 02:00:14 PM 41.5844 -82.1406 98° East 156 180 3,900 -520 Descending Cleveland Center
Thu 02:01:20 PM 41.5731 -82.0736 103° East 174 200 3,400 -378 Descending Cleveland Center
Thu 02:02:21 PM 41.5633 -82.0094 101° East 170 196 3,100 -422 Descending Cleveland Center
Thu 02:03:28 PM 41.5539 -81.9400 100° East 170 196 2,500 -545 Descending Cleveland Center
Thu 02:04:22 PM 41.5544 -81.8844 89° East 177 204 2,000 -470 Descending Cleveland Center
Thu 02:05:23 PM 41.5531 -81.8233 92° East 159 183 1,600 -148 Descending Cleveland Center
Thu 02:06:24 PM 41.5556 -81.7681 87° East 137 158 1,700 -47 Climbing Cleveland Center
Thu 02:07:30 PM 41.5561 -81.7181 89° East 112 129 1,500 -135 Descending Cleveland Center
Thu 02:08:37 PM 41.5586 -81.6736 86° East 112 129 1,400 -188 Descending Cleveland Center
Thu 02:09:38 PM 41.5339 -81.6594 157° South 78 90 1,100 -295 Descending Cleveland Center
Thu 02:11:00 PM 41.5167 -81.6667 90° East  Level FlightAware Approximate
Thu 02:18:00 PM 41.5175 -81.6833 90° East  Level Estimated

Login

Don't have an account? Register now (free) for customized features, flight alerts, and more!